Airfield :
LOGIN :

Register | Disclaimer

   EN    FR    IT 

 










Legend :    VFR   Marginal VFR   IFR   Intensive IFR   Very Intensive IFR
Visi :
Ceiling :
>= 8 km
>= 3000ft
5 to 8 km
1000 to 3000 ft
1500m to 5 km
500 to 1000 ft
800 to 1500m
200 to 500 ft
< 800m
< 200 ft
Symbols :   Thunderstorms  Fog  Heavy snow  Heavy precipitations  Wind > 20 kt
SIGMETs :     Misc.  Thunderstorms  Icing  Turbulence  Mountain Waves  Volcanic Ashes







- Airport Elevation : 602 ft
- IATA code : NVS
- Download approach charts


LFQG - Nevers

CURRENT METAR :
  • 191130Z AUTO VRB03KT 9999 OVC029 12/07 Q1023

EXPIRED METARs :
  • 191100Z AUTO 23003KT 150V260 9999 BKN013 OVC029 10/06 Q1023
  • 191030Z AUTO VRB02KT 9999 FEW013 BKN028 OVC100 10/05 Q1023
  • 191000Z AUTO 09004KT 9999 SCT024 BKN029 BKN078 08/04 Q1023
  • 190930Z AUTO 13002KT 9999 OVC020 08/04 Q1023
  • 190900Z AUTO VRB02KT 9999 BKN021 OVC028 07/04 Q1023

TAF N/A
No reported NOTAMs for that airfield.
1 SIGMET reported for the Paris FIR (LFFF) :
 
Severe turbulence
LFFF SIGMET 2 VALID 190800/191200 LFPW
LFFF PARIS FIR/UIR SEV TURB FCST WI N4715 E00130 - N4715 W00015 - N4800 W00015 - N4900 E00100 - N4830 E00230 - N4715 E00130 FL200/300 MOV E 10KT WKN=



MET'MAP, your aeronautical weather chart ! - Copyright ORBIFLY December 2007 - Disclaimer

ORBIFLY MET'MAP TEAM :

Programming & Development : Alexandra Zaïnal
Concept & Development : Baudouin d'Aumeries
Co-Development & Prog : Marc-Olivier Méhu
Technical & hardware support : Manuel Goepfert

Contact : metmap@orbifly.com




SOURCES & CREDITS :

   NOAA